21:52
Airports
History
Links
Donate
Help keep this website running!
PayPal
Bitcoin
This page is community maintained. The information is intended for PC simulator navigation or reference.
Always use approved charts for navigation.
EDHB
Grube
Grube (EDHB)
Grube, Schleswig-Holstein, Germany (23749)
(C)
Lat/Lng:54° 14' 39.96" N / 11° 1' 25.54" E
54.244434 / 11.02376
Elevation:6'ft / 2mMSL
ID / ICAO:EDHB
Runways:1
Longest:9-27
Grass 499m / 1,637ft
Controlled:Yes
Nearby Weather18:20 GMT 2017-10-16
Nearby weather at EDHL, Lubeck Blankensee located 32.8 nautical miles from EDHB
Altimeter: 30.12
Visibility: 6.2 statute miles
Wind: 1 knots (from 070°)
Temp: 14°c / 57°f
Humidity: 100.0%

METAR: EDHL 161820Z 07001KT CAVOK 14/14 Q1020

(Powered by phpweather)
Airport Radio Frequencies
Tower: 122.6
Nearby VORs <50NM
Nearby NDBs
Runway 9 / 27
Dimensions:498.9 x 29.9m 1637' x 98'ft
Surface:Grass
Runway 9 [A]Runway 27 [B]
Heading:090°TH 270°TH
Lat:
Lng:
54° 14' 39.96"N
11° 1' 11.65"E
54° 14' 39.96"N
11° 1' 39.42"E
User Notes and Comments
54° 14' 39.96" N / 11° 1' 25.54" E
Distance To
Airport ID:
Nearby Airports
(C) Neujellingsdorf 15.0 NM
EDH1 NNE 13°
(C) Sierksdorf Hof Altona 16.7 NM
EDXT SW 222°
(C) Wismar-Mueggenburg 29.9 NM
EDCW SE 139°
(C) Lubeck Blankensee 32.8 NM
EDHL ( WX ) SSW 202°
(C) Lolland Falster Maribo 35.6 NM
EKMB NNE 27°
(C) Kiel Holtenau 36.6 NM
EDHK WNW 284°
(C) Wahlstedt 37.6 NM
EDHW WSW 239°
VFR Chart
Flight Planning at SkyVector.com